Time;durP1;ratioP1;P1;durP2;ratioP2;P2;SDS_P1;SDS_P2;PMS_P1;PMS_P2;Temp;Humidity;BMP_temperature;BMP_pressure;BME280_temperature;BME280_humidity;BME280_pressure;Samples;Min_cycle;Max_cycle;Signal;HPM_P1;HPM_P2
2022/11/13 00:01:12;;;;;;;310.40;286.93;;;4.00;45.80;;;;;;5032018;28;20654;-71
2022/11/13 00:03:37;;;;;;;667.20;621.13;;;4.00;44.70;;;;;;5014021;28;20276;-71
2022/11/13 00:06:03;;;;;;;670.73;621.70;;;4.00;45.10;;;;;;5031883;28;20243;-71
2022/11/13 00:08:29;;;;;;;645.73;601.40;;;3.90;45.10;;;;;;5031758;28;20260;-71
2022/11/13 00:11:06;;;;;;;388.60;360.73;;;4.00;45.70;;;;;;5031722;28;20260;-71
2022/11/13 00:13:32;;;;;;;244.38;225.38;;;4.00;44.80;;;;;;5031521;28;20176;-71
2022/11/13 00:16:00;;;;;;;582.90;543.00;;;4.00;45.10;;;;;;5014007;28;20606;-71
2022/11/13 00:18:27;;;;;;;435.15;404.33;;;4.00;44.20;;;;;;5031842;28;20503;-71
2022/11/13 00:20:52;;;;;;;646.53;599.13;;;4.00;44.80;;;;;;5031336;28;20174;-70
2022/11/13 00:23:18;;;;;;;501.77;464.67;;;4.00;44.50;;;;;;5031560;28;20210;-71
2022/11/13 00:25:43;;;;;;;474.03;441.40;;;3.90;44.80;;;;;;5031511;28;20220;-70
2022/11/13 00:28:09;;;;;;;578.60;535.17;;;3.90;44.30;;;;;;5046954;28;20231;-70
2022/11/13 00:30:34;;;;;;;678.77;632.00;;;3.80;44.00;;;;;;5032388;28;20188;-71
2022/11/13 00:33:00;;;;;;;547.27;510.20;;;3.80;45.60;;;;;;5031611;28;20180;-70
2022/11/13 00:35:25;;;;;;;596.20;553.43;;;3.90;45.50;;;;;;5031574;28;20238;-71
2022/11/13 00:37:51;;;;;;;338.43;313.70;;;4.00;45.30;;;;;;5031599;28;20204;-71
2022/11/13 00:40:16;;;;;;;418.33;387.93;;;3.90;44.60;;;;;;5031560;28;20240;-71
2022/11/13 00:42:42;;;;;;;364.97;338.40;;;3.90;44.10;;;;;;5013571;28;20189;-71
2022/11/13 00:45:08;;;;;;;487.00;452.93;;;3.80;45.10;;;;;;5031443;28;20208;-71
2022/11/13 00:47:34;;;;;;;407.57;376.00;;;3.70;45.80;;;;;;5046886;28;20209;-71
2022/11/13 00:49:59;;;;;;;433.55;403.77;;;3.70;45.80;;;;;;5031697;28;20417;-73
2022/11/13 00:52:25;;;;;;;381.40;353.77;;;3.70;45.60;;;;;;5031068;28;20719;-72
2022/11/13 00:54:51;;;;;;;160.57;146.80;;;3.80;45.60;;;;;;5013664;28;20205;-73
2022/11/13 00:57:17;;;;;;;225.63;208.93;;;3.80;46.70;;;;;;5031367;28;20284;-72
2022/11/13 00:59:43;;;;;;;302.80;280.45;;;3.80;45.50;;;;;;5031369;28;20489;-72
2022/11/13 01:02:10;;;;;;;454.63;422.17;;;3.70;44.00;;;;;;5031102;28;20174;-72
2022/11/13 01:04:36;;;;;;;563.45;521.55;;;3.70;44.30;;;;;;5031254;28;20179;-72
2022/11/13 01:07:01;;;;;;;353.60;329.40;;;3.60;46.20;;;;;;5031235;28;20235;-71
2022/11/13 01:09:27;;;;;;;484.30;452.50;;;3.60;46.10;;;;;;5031308;28;20173;-71
2022/11/13 01:11:52;;;;;;;386.63;359.53;;;3.60;46.20;;;;;;5013316;28;20178;-72
2022/11/13 01:14:18;;;;;;;329.67;307.67;;;3.60;47.00;;;;;;5031225;28;20179;-72
2022/11/13 01:16:43;;;;;;;555.33;518.20;;;3.70;45.70;;;;;;5013508;28;20700;-73
2022/11/13 01:19:09;;;;;;;224.07;207.60;;;3.70;46.80;;;;;;5031093;28;20606;-72
2022/11/13 01:21:35;;;;;;;447.37;419.13;;;3.80;47.10;;;;;;5031178;28;20187;-72
2022/11/13 01:24:01;;;;;;;520.80;484.70;;;3.90;46.20;;;;;;5031077;28;20182;-73
2022/11/13 01:26:29;;;;;;;210.43;194.53;;;3.90;46.40;;;;;;5031028;28;20326;-71
2022/11/13 01:28:56;;;;;;;141.60;128.40;;;3.90;45.00;;;;;;5031105;28;20177;-72
2022/11/13 01:31:26;;;;;;;411.42;384.02;;;4.00;44.30;;;;;;5030969;28;20653;-73
2022/11/13 01:33:52;;;;;;;597.28;556.83;;;3.90;43.80;;;;;;5032584;28;20652;-72
2022/11/13 01:36:23;;;;;;;459.50;429.63;;;4.00;44.50;;;;;;5034611;28;20341;-72
2022/11/13 01:38:49;;;;;;;621.35;578.15;;;4.00;43.40;;;;;;5034472;28;20471;-72
2022/11/13 01:41:28;;;;;;;470.17;438.08;;;3.90;43.50;;;;;;5034556;28;20173;-71
2022/11/13 01:43:54;;;;;;;296.52;274.80;;;4.00;43.80;;;;;;5034331;28;20539;-72
2022/11/13 01:46:42;;;;;;;236.63;218.07;;;4.00;43.60;;;;;;5034281;28;20256;-72
2022/11/13 01:49:10;;;;;;;329.05;303.33;;;4.00;43.30;;;;;;5034426;28;20558;-72
2022/11/13 01:51:43;;;;;;;504.15;468.90;;;4.00;42.80;;;;;;5034383;28;20185;-71
2022/11/13 01:54:16;;;;;;;426.67;397.67;;;3.90;42.90;;;;;;5016372;28;20185;-72
2022/11/13 01:56:42;;;;;;;589.35;549.28;;;3.90;44.80;;;;;;5049480;28;20205;-72
2022/11/13 01:59:12;;;;;;;364.80;339.42;;;3.80;46.00;;;;;;5034102;28;20209;-72
2022/11/13 02:01:38;;;;;;;305.60;281.92;;;3.90;45.30;;;;;;5034162;28;20634;-71
2022/11/13 02:04:04;;;;;;;531.13;494.07;;;3.90;42.80;;;;;;5033845;28;20194;-70
2022/11/13 02:06:44;;;;;;;109.17;97.90;;;3.90;42.30;;;;;;5016229;28;20431;-72
2022/11/13 02:09:11;;;;;;;358.00;332.48;;;4.00;43.40;;;;;;5016222;28;20189;-71
2022/11/13 02:11:37;;;;;;;554.05;515.40;;;3.90;42.20;;;;;;5033843;28;20269;-70
2022/11/13 02:14:04;;;;;;;214.33;198.20;;;3.70;42.10;;;;;;5033662;28;20260;-71
2022/11/13 02:16:33;;;;;;;318.52;296.38;;;3.80;43.90;;;;;;5033842;28;20925;-71
2022/11/13 02:19:00;;;;;;;527.88;488.48;;;3.70;42.50;;;;;;5033945;28;20221;-70
2022/11/13 02:21:57;;;;;;;410.65;380.25;;;3.70;43.90;;;;;;5033840;28;20178;-71
2022/11/13 02:24:32;;;;;;;548.25;509.08;;;3.70;44.20;;;;;;5000586;28;20194;-71
2022/11/13 02:27:03;;;;;;;403.80;377.08;;;3.70;44.50;;;;;;5033646;28;20187;-70
2022/11/13 02:29:29;;;;;;;527.40;491.70;;;3.80;44.20;;;;;;5015888;28;20180;-70
2022/11/13 02:31:55;;;;;;;272.07;251.97;;;3.80;43.40;;;;;;5033359;28;20536;-71
2022/11/13 02:34:20;;;;;;;487.77;454.03;;;3.70;42.50;;;;;;5015761;28;20188;-70
2022/11/13 02:36:46;;;;;;;341.53;317.53;;;3.70;42.80;;;;;;5033404;28;20275;-70
2022/11/13 02:39:13;;;;;;;332.13;309.43;;;3.60;42.80;;;;;;5015595;28;20216;-71
2022/11/13 02:41:39;;;;;;;491.58;457.17;;;3.50;42.90;;;;;;5033547;28;20180;-71
2022/11/13 02:44:06;;;;;;;305.30;284.97;;;3.50;43.30;;;;;;5032875;28;20641;-71
2022/11/13 02:46:32;;;;;;;389.27;359.33;;;3.40;43.50;;;;;;5033200;28;20196;-71
2022/11/13 02:48:58;;;;;;;430.40;400.55;;;3.50;43.50;;;;;;5033441;28;20641;-71
2022/11/13 02:51:23;;;;;;;220.97;203.03;;;3.50;42.70;;;;;;5033217;28;20183;-71
2022/11/13 02:53:49;;;;;;;91.80;71.27;;;3.50;42.60;;;;;;5032932;28;20186;-70
2022/11/13 02:56:14;;;;;;;228.23;209.23;;;3.40;41.20;;;;;;5033081;28;20206;-69
2022/11/13 02:58:40;;;;;;;152.57;138.07;;;3.40;41.90;;;;;;5032990;28;20612;-71
2022/11/13 03:01:05;;;;;;;479.27;444.37;;;3.40;42.40;;;;;;5033037;28;20175;-71
2022/11/13 03:03:31;;;;;;;96.17;79.50;;;3.40;42.70;;;;;;5032592;28;20572;-70
2022/11/13 03:05:56;;;;;;;332.33;305.93;;;3.40;42.30;;;;;;5032785;28;20201;-70
2022/11/13 03:08:24;;;;;;;630.17;585.83;;;3.50;42.00;;;;;;5032928;28;20227;-70
2022/11/13 03:10:50;;;;;;;645.13;602.05;;;3.50;42.20;;;;;;5015069;28;20645;-71
2022/11/13 03:13:16;;;;;;;419.70;390.10;;;3.50;42.00;;;;;;5032489;28;20178;-71
2022/11/13 03:15:42;;;;;;;229.47;210.97;;;3.50;41.90;;;;;;5032777;28;20201;-70
2022/11/13 03:18:10;;;;;;;138.05;124.75;;;3.40;41.90;;;;;;5032650;28;20506;-71
2022/11/13 03:20:36;;;;;;;376.77;349.60;;;3.40;41.90;;;;;;5015042;28;20666;-70
2022/11/13 03:23:03;;;;;;;248.20;230.20;;;3.40;41.80;;;;;;5032525;28;20188;-70
2022/11/13 03:25:28;;;;;;;551.70;513.47;;;3.40;42.40;;;;;;5032403;28;20254;-70
2022/11/13 03:27:54;;;;;;;439.87;408.27;;;3.40;41.90;;;;;;5032561;28;20211;-70
2022/11/13 03:30:19;;;;;;;447.87;414.00;;;3.40;41.90;;;;;;5032565;28;20207;-70
2022/11/13 03:32:45;;;;;;;675.43;626.43;;;3.40;41.90;;;;;;5032520;28;20260;-71
2022/11/13 03:35:11;;;;;;;334.87;309.57;;;3.40;41.80;;;;;;5032379;28;20442;-71
2022/11/13 03:37:36;;;;;;;456.70;423.83;;;3.30;41.80;;;;;;5014737;28;20681;-71
2022/11/13 03:40:02;;;;;;;228.63;210.73;;;3.30;41.50;;;;;;5032381;28;20197;-70
2022/11/13 03:42:28;;;;;;;479.80;445.33;;;3.20;42.10;;;;;;5032062;28;20194;-70
2022/11/13 03:44:53;;;;;;;267.43;246.80;;;3.20;41.60;;;;;;5032273;28;20426;-70
2022/11/13 03:47:19;;;;;;;264.67;244.07;;;3.10;41.60;;;;;;5032187;28;20186;-71
2022/11/13 03:49:44;;;;;;;421.83;390.70;;;2.90;41.40;;;;;;5032174;28;20258;-71
2022/11/13 03:52:10;;;;;;;366.23;339.27;;;2.90;42.00;;;;;;5014322;28;20193;-70
2022/11/13 03:54:35;;;;;;;451.40;423.50;;;2.80;43.20;;;;;;5032617;28;20184;-71
2022/11/13 03:57:01;;;;;;;217.43;201.77;;;2.80;45.00;;;;;;5031371;28;20175;-71
2022/11/13 03:59:26;;;;;;;340.80;316.97;;;2.70;44.20;;;;;;5032009;28;20205;-70
2022/11/13 04:01:52;;;;;;;373.13;347.93;;;2.70;45.10;;;;;;5032203;28;20557;-71
2022/11/13 04:04:17;;;;;;;366.37;340.60;;;2.70;45.70;;;;;;5031963;28;20275;-71
2022/11/13 04:06:43;;;;;;;181.10;166.23;;;2.70;46.20;;;;;;5014119;28;20193;-71
2022/11/13 04:09:08;;;;;;;383.63;356.80;;;2.80;46.40;;;;;;5031933;28;20245;-71
2022/11/13 04:11:34;;;;;;;395.77;367.00;;;2.80;46.40;;;;;;5031834;28;20189;-71
2022/11/13 04:13:59;;;;;;;156.97;143.37;;;2.80;46.30;;;;;;5031649;28;20193;-71
2022/11/13 04:16:25;;;;;;;270.07;251.07;;;2.80;46.40;;;;;;5031679;28;20231;-71
2022/11/13 04:18:50;;;;;;;164.40;150.43;;;2.90;45.30;;;;;;5031717;28;20211;-71
2022/11/13 04:21:16;;;;;;;414.03;390.33;;;2.80;45.80;;;;;;5031838;28;20203;-71
2022/11/13 04:23:42;;;;;;;356.90;333.53;;;2.90;45.10;;;;;;5031558;28;20211;-71
2022/11/13 04:26:07;;;;;;;412.97;384.70;;;3.00;45.80;;;;;;5031615;28;20589;-72
2022/11/13 04:28:33;;;;;;;494.20;462.30;;;3.10;45.40;;;;;;5031685;28;20180;-70
2022/11/13 04:30:58;;;;;;;414.13;387.20;;;3.10;44.10;;;;;;5031622;28;20195;-70
2022/11/13 04:33:24;;;;;;;476.23;446.10;;;2.90;44.50;;;;;;5013743;28;20193;-72
2022/11/13 04:35:50;;;;;;;273.50;253.10;;;2.90;45.10;;;;;;5031791;28;20269;-72
2022/11/13 04:38:15;;;;;;;372.93;346.90;;;2.90;46.40;;;;;;5031584;28;20635;-71
2022/11/13 04:40:41;;;;;;;329.30;308.53;;;3.00;45.30;;;;;;5031717;28;20218;-72
2022/11/13 04:43:07;;;;;;;240.40;224.77;;;2.90;45.80;;;;;;5031355;28;20260;-71
2022/11/13 04:45:33;;;;;;;235.27;217.97;;;3.00;46.50;;;;;;5031487;28;20235;-72
2022/11/13 04:47:59;;;;;;;521.50;491.52;;;2.70;46.20;;;;;;5013827;28;20657;-72
2022/11/13 04:50:24;;;;;;;558.87;519.10;;;2.90;46.40;;;;;;5013619;28;20272;-71
2022/11/13 04:52:50;;;;;;;580.83;543.17;;;3.00;46.00;;;;;;5013452;28;20326;-72
2022/11/13 04:55:16;;;;;;;438.27;410.97;;;3.10;45.50;;;;;;5031358;28;20357;-72
2022/11/13 04:57:41;;;;;;;409.27;384.33;;;3.10;44.90;;;;;;5031327;28;20733;-71
2022/11/13 05:00:08;;;;;;;346.10;322.53;;;3.00;43.30;;;;;;5031415;28;20462;-72
2022/11/13 05:02:34;;;;;;;261.23;241.77;;;2.90;43.80;;;;;;5031107;28;20262;-71
2022/11/13 05:05:00;;;;;;;332.47;309.20;;;2.80;43.90;;;;;;5031343;28;20241;-72
2022/11/13 05:07:26;;;;;;;436.40;409.55;;;2.80;45.30;;;;;;5014804;28;20176;-71
2022/11/13 05:09:52;;;;;;;442.98;413.35;;;2.80;46.10;;;;;;5035164;28;20174;-72
2022/11/13 05:12:18;;;;;;;476.20;444.88;;;2.70;44.50;;;;;;5034916;28;20176;-72
2022/11/13 05:14:43;;;;;;;279.00;257.92;;;2.50;44.80;;;;;;5034897;28;20255;-72
2022/11/13 05:17:11;;;;;;;313.77;293.03;;;2.70;46.30;;;;;;5035054;28;20263;-72
2022/11/13 05:19:37;;;;;;;371.75;346.75;;;2.70;45.00;;;;;;5034929;28;20178;-71
2022/11/13 05:22:03;;;;;;;316.10;294.13;;;2.80;44.00;;;;;;5035005;28;20630;-72
2022/11/13 05:24:28;;;;;;;373.40;348.17;;;2.70;43.50;;;;;;5034726;28;20172;-71
2022/11/13 05:26:54;;;;;;;262.63;242.53;;;2.60;43.20;;;;;;5076677;23;20310;-74
2022/11/13 05:29:20;;;;;;;362.03;338.47;;;2.50;43.00;;;;;;5054840;28;20176;-71
2022/11/13 05:31:46;;;;;;;294.10;274.17;;;2.50;44.30;;;;;;5054795;28;20250;-73
2022/11/13 05:34:11;;;;;;;237.27;218.82;;;2.60;44.50;;;;;;5054725;28;20598;-72
2022/11/13 05:36:37;;;;;;;315.67;294.87;;;2.60;43.60;;;;;;5068527;28;20283;-72
2022/11/13 05:39:03;;;;;;;318.13;296.87;;;2.70;43.30;;;;;;5074803;28;20231;-74
2022/11/13 05:41:31;;;;;;;381.23;354.50;;;2.60;43.30;;;;;;5056736;28;20700;-72
2022/11/13 05:43:57;;;;;;;380.10;354.88;;;2.70;42.00;;;;;;5074276;28;20414;-74
2022/11/13 05:46:28;;;;;;;237.48;220.38;;;2.50;42.10;;;;;;5074460;28;20200;-73
2022/11/13 05:48:58;;;;;;;399.15;368.35;;;2.60;43.00;;;;;;5074400;28;20205;-72
2022/11/13 05:51:27;;;;;;;322.95;300.27;;;2.40;42.80;;;;;;5074670;28;20176;-72
2022/11/13 05:53:53;;;;;;;158.75;145.32;;;2.40;43.70;;;;;;5074314;28;20216;-72
2022/11/13 05:56:25;;;;;;;456.58;430.60;;;2.50;46.10;;;;;;5056000;28;20662;-72
2022/11/13 05:58:52;;;;;;;358.80;334.20;;;2.50;44.90;;;;;;5074348;28;20618;-72
2022/11/13 06:01:22;;;;;;;321.98;298.42;;;2.60;44.50;;;;;;5074434;28;20209;-71
2022/11/13 06:03:48;;;;;;;359.17;336.08;;;2.50;44.10;;;;;;5056146;28;20558;-71
2022/11/13 06:06:17;;;;;;;424.23;395.10;;;2.40;43.40;;;;;;5056422;28;20198;-72
2022/11/13 06:08:43;;;;;;;358.00;337.27;;;2.20;43.50;;;;;;5074444;28;20182;-71
2022/11/13 06:11:11;;;;;;;326.63;305.48;;;2.30;44.30;;;;;;5056429;28;20237;-71
2022/11/13 06:13:38;;;;;;;95.88;85.88;;;2.40;44.70;;;;;;5073928;28;20170;-70
2022/11/13 06:16:24;;;;;;;344.42;320.40;;;2.40;44.20;;;;;;5074286;28;20198;-71
2022/11/13 06:18:57;;;;;;;226.80;210.35;;;2.30;42.90;;;;;;5073508;28;20202;-72
2022/11/13 06:21:27;;;;;;;313.08;291.10;;;2.30;43.20;;;;;;5056018;28;20186;-72
2022/11/13 06:23:53;;;;;;;338.95;315.88;;;2.20;44.10;;;;;;5073846;28;20167;-71
2022/11/13 06:26:21;;;;;;;378.93;355.70;;;2.10;44.30;;;;;;5073807;28;20205;-74
2022/11/13 06:28:47;;;;;;;85.40;54.53;;;2.20;44.20;;;;;;5073993;28;20433;-73
2022/11/13 06:31:14;;;;;;;338.08;318.02;;;2.30;44.50;;;;;;5073805;28;20202;-73
2022/11/13 06:33:40;;;;;;;448.77;420.35;;;2.20;43.00;;;;;;5073430;28;20414;-71
2022/11/13 06:36:10;;;;;;;349.02;327.27;;;2.30;45.00;;;;;;5073511;28;20665;-73
2022/11/13 06:38:37;;;;;;;103.10;83.70;;;2.40;43.50;;;;;;5073503;28;20209;-70
2022/11/13 06:41:04;;;;;;;375.67;353.05;;;2.30;43.50;;;;;;5055611;28;20551;-72
2022/11/13 06:43:30;;;;;;;443.00;411.48;;;2.40;43.30;;;;;;5073578;28;20172;-72
2022/11/13 06:45:56;;;;;;;213.90;196.98;;;2.40;41.90;;;;;;5055890;28;20569;-72
2022/11/13 06:48:22;;;;;;;297.80;277.50;;;2.30;43.00;;;;;;5055292;28;20187;-71
2022/11/13 06:50:49;;;;;;;384.55;357.85;;;2.30;41.00;;;;;;5055375;28;20243;-71
2022/11/13 06:53:14;;;;;;;334.77;312.70;;;2.30;40.90;;;;;;5073077;28;20261;-72
2022/11/13 06:55:49;;;;;;;388.97;363.20;;;2.20;41.80;;;;;;5073172;28;20229;-72
2022/11/13 06:58:15;;;;;;;351.70;328.08;;;2.20;43.10;;;;;;5073150;28;20196;-72
2022/11/13 07:00:42;;;;;;;492.70;457.63;;;2.20;43.20;;;;;;5073135;28;20263;-73
2022/11/13 07:03:19;;;;;;;230.20;212.07;;;2.20;43.40;;;;;;5055477;28;20174;-71
2022/11/13 07:05:44;;;;;;;204.40;188.40;;;2.20;43.40;;;;;;5073340;28;20231;-72
2022/11/13 07:08:11;;;;;;;263.30;245.50;;;2.20;42.00;;;;;;5055128;28;20222;-72
2022/11/13 07:10:36;;;;;;;332.52;309.35;;;2.20;42.30;;;;;;5072904;28;20171;-72
2022/11/13 07:13:02;;;;;;;213.67;196.13;;;2.40;41.60;;;;;;5072722;28;20548;-72
2022/11/13 07:15:27;;;;;;;283.97;265.87;;;2.40;40.70;;;;;;5072739;28;20209;-72
2022/11/13 07:17:53;;;;;;;348.20;324.10;;;2.30;40.40;;;;;;5072641;28;20193;-73
2022/11/13 07:20:19;;;;;;;467.30;439.10;;;2.40;41.00;;;;;;5072596;28;20518;-72
2022/11/13 07:22:44;;;;;;;228.27;210.90;;;2.50;39.10;;;;;;5054600;28;20560;-71
2022/11/13 07:25:10;;;;;;;236.80;218.53;;;2.40;39.20;;;;;;5072245;28;20680;-70
2022/11/13 07:27:35;;;;;;;365.97;338.17;;;2.50;37.60;;;;;;5050554;28;20603;-73
2022/11/13 07:30:05;;;;;;;101.57;90.80;;;2.50;38.30;;;;;;5067535;28;20182;-71
2022/11/13 07:32:33;;;;;;;267.40;248.13;;;2.50;37.10;;;;;;5068096;28;20183;-73
2022/11/13 07:34:59;;;;;;;345.63;323.67;;;2.40;36.10;;;;;;5068172;28;20183;-71
2022/11/13 07:37:26;;;;;;;288.40;268.67;;;2.40;37.10;;;;;;5067975;28;20205;-71
2022/11/13 07:39:51;;;;;;;168.00;153.98;;;2.40;37.70;;;;;;5050714;28;20564;-72
2022/11/13 07:42:17;;;;;;;183.33;168.17;;;2.50;38.10;;;;;;5049865;28;20181;-69
2022/11/13 07:44:42;;;;;;;477.90;448.93;;;2.70;36.20;;;;;;5067546;28;20178;-71
2022/11/13 07:47:08;;;;;;;106.77;95.97;;;2.70;36.20;;;;;;5068326;28;20203;-73
2022/11/13 07:49:33;;;;;;;381.20;357.50;;;2.80;35.40;;;;;;5068045;28;20204;-72
2022/11/13 07:52:02;;;;;;;246.87;229.23;;;2.80;36.30;;;;;;5067443;28;20174;-72
2022/11/13 07:54:28;;;;;;;377.92;350.35;;;2.90;35.30;;;;;;5068413;28;20580;-71
2022/11/13 07:56:53;;;;;;;416.00;390.93;;;2.80;35.40;;;;;;5067780;28;20491;-72
2022/11/13 07:59:19;;;;;;;324.33;301.83;;;2.90;36.20;;;;;;5067348;28;20408;-71
2022/11/13 08:01:44;;;;;;;399.60;373.10;;;2.80;36.30;;;;;;5068205;28;20179;-72
2022/11/13 08:04:10;;;;;;;392.50;368.27;;;3.00;35.40;;;;;;5067603;28;20243;-72
2022/11/13 08:06:36;;;;;;;291.00;269.03;;;3.20;34.70;;;;;;5068419;28;20280;-71
2022/11/13 08:09:02;;;;;;;351.50;325.23;;;3.30;33.30;;;;;;5078496;28;20184;-71
2022/11/13 08:11:28;;;;;;;372.20;345.52;;;3.40;33.40;;;;;;5079066;28;20175;-70
2022/11/13 08:13:54;;;;;;;345.47;320.80;;;3.30;33.10;;;;;;5092194;28;20190;-71
2022/11/13 08:16:19;;;;;;;393.93;368.17;;;3.30;34.30;;;;;;5083402;28;20573;-70
2022/11/13 08:18:45;;;;;;;272.23;251.20;;;3.40;34.00;;;;;;5069169;28;20211;-72
2022/11/13 08:21:10;;;;;;;201.80;186.17;;;3.60;33.60;;;;;;5071703;28;20604;-71
2022/11/13 08:23:36;;;;;;;272.27;251.50;;;3.70;33.30;;;;;;5054924;28;20205;-71
2022/11/13 08:26:05;;;;;;;431.83;402.40;;;3.70;31.90;;;;;;5077395;28;20274;-71
2022/11/13 08:28:31;;;;;;;489.30;454.90;;;3.80;32.00;;;;;;5067155;28;20195;-70
2022/11/13 08:30:56;;;;;;;153.77;140.23;;;3.90;30.40;;;;;;5071338;28;20185;-71
2022/11/13 08:33:22;;;;;;;205.27;188.10;;;4.00;28.90;;;;;;5071145;28;20259;-72
2022/11/13 08:35:52;;;;;;;180.43;165.00;;;4.10;29.10;;;;;;5082747;28;20235;-73
2022/11/13 08:38:18;;;;;;;225.45;206.70;;;4.10;29.00;;;;;;5069608;28;20644;-72
2022/11/13 08:40:43;;;;;;;167.90;153.40;;;4.10;28.90;;;;;;5071784;28;20257;-73
2022/11/13 08:43:09;;;;;;;233.13;213.93;;;4.10;28.90;;;;;;5073457;28;20176;-71
2022/11/13 08:45:34;;;;;;;581.27;543.87;;;4.20;28.70;;;;;;5075313;28;20196;-70
2022/11/13 08:48:01;;;;;;;361.43;335.37;;;4.30;29.10;;;;;;5057215;28;20311;-72
2022/11/13 08:50:28;;;;;;;383.13;356.42;;;4.30;29.40;;;;;;5075208;28;20180;-72
2022/11/13 08:52:55;;;;;;;401.20;374.70;;;4.10;30.30;;;;;;5075149;28;20207;-70
2022/11/13 08:55:20;;;;;;;294.92;271.85;;;4.30;30.40;;;;;;5066000;28;20216;-73
2022/11/13 08:57:46;;;;;;;186.73;170.40;;;4.50;30.00;;;;;;5088672;28;20544;-72
2022/11/13 09:00:12;;;;;;;324.10;300.27;;;4.70;28.20;;;;;;5074469;28;20879;-72
2022/11/13 09:02:38;;;;;;;343.02;318.00;;;4.90;28.30;;;;;;5074889;28;20444;-72
2022/11/13 09:05:04;;;;;;;239.60;220.77;;;4.80;28.30;;;;;;5075016;28;20230;-72
2022/11/13 09:07:29;;;;;;;379.13;352.30;;;4.80;28.30;;;;;;5075028;28;20184;-72
2022/11/13 09:09:55;;;;;;;459.37;426.93;;;4.90;28.30;;;;;;5080167;28;20430;-73
2022/11/13 09:12:20;;;;;;;372.40;348.03;;;5.20;28.10;;;;;;5087667;28;20185;-73
2022/11/13 09:14:46;;;;;;;410.67;381.90;;;4.90;27.70;;;;;;5103993;28;20188;-74
2022/11/13 09:17:12;;;;;;;317.87;296.63;;;4.80;28.30;;;;;;5104410;28;20234;-74
2022/11/13 09:19:38;;;;;;;542.93;508.03;;;4.90;28.30;;;;;;5086679;28;20207;-73
2022/11/13 09:22:04;;;;;;;241.85;222.48;;;4.60;29.10;;;;;;5091384;28;20421;-74
2022/11/13 09:24:30;;;;;;;411.70;383.10;;;4.80;27.80;;;;;;5085241;28;20317;-73
2022/11/13 09:26:55;;;;;;;203.13;185.87;;;5.00;27.50;;;;;;5102554;28;20446;-74
2022/11/13 09:29:22;;;;;;;254.23;234.70;;;5.30;26.90;;;;;;5103023;28;20181;-74
2022/11/13 09:31:48;;;;;;;399.23;371.03;;;5.30;26.90;;;;;;5085384;28;20187;-73
2022/11/13 09:34:14;;;;;;;332.07;308.73;;;5.60;27.20;;;;;;5104027;28;20418;-73
2022/11/13 09:36:39;;;;;;;587.07;548.57;;;5.60;26.00;;;;;;5097871;28;20991;-73
2022/11/13 09:39:05;;;;;;;332.67;308.17;;;5.80;26.30;;;;;;5084324;28;20193;-71
2022/11/13 09:41:59;;;;;;;409.97;380.80;;;5.90;24.80;;;;;;5065957;28;20218;-72
2022/11/13 09:44:42;;;;;;;85.73;66.70;;;5.90;25.60;;;;;;5066565;28;20424;-74
2022/11/13 09:47:18;;;;;;;164.53;149.33;;;6.10;24.10;;;;;;5068626;28;20814;-72
2022/11/13 09:49:48;;;;;;;342.70;319.70;;;6.00;24.80;;;;;;5082876;28;20415;-73
2022/11/13 09:52:25;;;;;;;429.53;402.37;;;5.90;23.70;;;;;;5081098;28;20488;-72
2022/11/13 09:54:50;;;;;;;286.67;266.20;;;5.80;24.80;;;;;;5081613;28;20431;-74
2022/11/13 09:57:22;;;;;;;394.63;368.83;;;5.80;24.40;;;;;;5067466;28;20423;-73
2022/11/13 10:00:01;;;;;;;535.33;501.70;;;6.00;24.50;;;;;;5086111;28;20198;-73
2022/11/13 10:02:36;;;;;;;191.43;175.23;;;6.30;24.00;;;;;;5081517;28;20418;-73
2022/11/13 10:05:30;;;;;;;454.80;423.37;;;6.60;23.20;;;;;;5081709;28;20975;-73
2022/11/13 10:08:17;;;;;;;393.47;367.37;;;6.80;21.80;;;;;;5088081;28;20511;-73
2022/11/13 10:11:07;;;;;;;199.63;183.50;;;6.90;21.30;;;;;;5100612;28;20467;-73
2022/11/13 10:13:56;;;;;;;540.27;506.27;;;6.80;22.00;;;;;;5104863;28;20412;-73
2022/11/13 10:16:35;;;;;;;230.77;213.07;;;7.00;21.40;;;;;;5104781;28;20435;-73
2022/11/13 10:19:42;;;;;;;551.67;516.80;;;7.30;21.60;;;;;;5086027;28;20459;-72
2022/11/13 10:22:26;;;;;;;372.37;346.83;;;7.50;21.70;;;;;;5095643;28;20432;-74
2022/11/13 10:24:56;;;;;;;194.43;178.47;;;7.60;19.60;;;;;;5065304;28;20435;-73
2022/11/13 10:27:22;;;;;;;515.13;483.30;;;7.50;20.50;;;;;;5084010;28;20888;-74
2022/11/13 10:29:48;;;;;;;386.93;361.17;;;7.10;20.50;;;;;;5083064;28;20438;-74
2022/11/13 10:32:13;;;;;;;137.13;123.80;;;7.20;21.40;;;;;;5083078;28;20780;-74
2022/11/13 10:34:42;;;;;;;134.20;121.40;;;7.10;21.50;;;;;;5083721;28;20178;-73
2022/11/13 10:37:19;;;;;;;416.87;389.07;;;7.00;21.80;;;;;;5082951;28;20187;-74
2022/11/13 10:39:45;;;;;;;175.73;160.40;;;7.30;21.60;;;;;;5083918;28;20397;-73
2022/11/13 10:42:35;;;;;;;256.83;236.87;;;7.30;21.60;;;;;;5083528;28;20419;-72
2022/11/13 10:45:01;;;;;;;391.87;365.70;;;7.30;21.70;;;;;;5082885;28;20180;-74
2022/11/13 10:47:30;;;;;;;370.40;345.13;;;7.10;21.20;;;;;;5064602;28;20767;-74
2022/11/13 10:49:56;;;;;;;409.80;382.80;;;7.00;21.40;;;;;;5065667;28;20420;-74
2022/11/13 10:52:24;;;;;;;370.87;345.40;;;7.20;21.50;;;;;;5064443;28;20582;-74
2022/11/13 10:55:02;;;;;;;312.90;290.40;;;7.20;21.50;;;;;;5083987;28;20178;-75
2022/11/13 10:57:33;;;;;;;360.07;335.90;;;7.20;21.30;;;;;;5064347;28;20889;-73
2022/11/13 10:59:59;;;;;;;546.87;509.03;;;7.10;21.50;;;;;;5095382;28;20450;-73
2022/11/13 11:02:27;;;;;;;452.07;421.80;;;7.20;21.90;;;;;;5064279;28;20439;-71
2022/11/13 11:05:06;;;;;;;237.97;220.00;;;7.40;21.70;;;;;;5064167;28;20424;-73
2022/11/13 11:07:39;;;;;;;291.50;270.37;;;7.30;21.80;;;;;;5082682;28;20850;-72
2022/11/13 11:10:20;;;;;;;532.37;497.30;;;7.70;21.20;;;;;;5083404;28;20504;-73
2022/11/13 11:12:58;;;;;;;489.93;457.20;;;8.00;20.80;;;;;;5083165;28;20447;-74
2022/11/13 11:15:30;;;;;;;429.23;400.50;;;8.10;19.70;;;;;;5061659;28;20488;-74
2022/11/13 11:18:04;;;;;;;310.20;287.57;;;8.30;19.80;;;;;;5062961;28;20503;-73
2022/11/13 11:20:49;;;;;;;210.77;193.90;;;8.40;18.60;;;;;;5075613;28;20461;-73
2022/11/13 11:23:34;;;;;;;563.30;525.40;;;8.40;19.10;;;;;;5065147;28;20418;-73
2022/11/13 11:26:10;;;;;;;286.07;263.70;;;8.40;19.10;;;;;;5064804;28;20506;-75
2022/11/13 11:28:48;;;;;;;318.07;295.37;;;8.60;18.70;;;;;;5082698;28;20484;-74
2022/11/13 11:31:25;;;;;;;319.97;296.90;;;8.70;18.30;;;;;;5082615;28;20900;-74
2022/11/13 11:34:01;;;;;;;394.87;369.87;;;8.60;18.20;;;;;;5081938;28;20425;-72
2022/11/13 11:36:32;;;;;;;301.17;280.30;;;7.80;19.80;;;;;;5064375;28;20995;-73
2022/11/13 11:39:35;;;;;;;439.57;410.70;;;7.60;21.00;;;;;;5082781;28;20476;-73
2022/11/13 11:42:25;;;;;;;97.47;75.23;;;7.40;20.50;;;;;;5081238;28;20414;-72
2022/11/13 11:45:19;;;;;;;438.93;410.13;;;7.50;20.90;;;;;;5081046;28;20397;-73
2022/11/13 11:47:45;;;;;;;94.30;81.07;;;7.00;21.50;;;;;;5082099;28;20423;-73
2022/11/13 11:50:17;;;;;;;264.33;245.13;;;6.90;23.70;;;;;;5082495;28;20458;-73
2022/11/13 11:52:51;;;;;;;202.60;186.57;;;7.10;23.10;;;;;;5095280;28;20428;-73
2022/11/13 11:55:36;;;;;;;508.63;475.67;;;7.10;23.20;;;;;;5102820;28;20437;-72
2022/11/13 11:58:23;;;;;;;329.93;306.47;;;7.10;23.00;;;;;;5101975;28;20461;-72
2022/11/13 12:01:17;;;;;;;351.97;328.70;;;6.90;23.20;;;;;;5101464;28;20411;-74
2022/11/13 12:04:19;;;;;;;112.10;100.37;;;6.50;24.90;;;;;;5059936;28;20500;-73
2022/11/13 12:06:57;;;;;;;244.30;226.17;;;6.40;25.50;;;;;;5060172;28;20429;-74
2022/11/13 12:09:28;;;;;;;275.27;256.00;;;6.20;26.20;;;;;;5060233;28;20424;-73
2022/11/13 12:12:32;;;;;;;371.83;347.37;;;6.20;27.50;;;;;;5060903;28;20424;-73
2022/11/13 12:15:03;;;;;;;383.10;357.03;;;6.40;27.10;;;;;;5076035;28;20436;-73
2022/11/13 12:17:43;;;;;;;489.87;460.60;;;6.30;27.10;;;;;;5097228;28;20427;-73
2022/11/13 12:20:47;;;;;;;179.00;163.23;;;6.40;27.60;;;;;;5104531;28;20411;-73
2022/11/13 12:23:28;;;;;;;500.27;468.30;;;6.50;27.10;;;;;;5081084;28;20419;-73
2022/11/13 12:26:13;;;;;;;555.63;517.40;;;6.70;26.60;;;;;;5103036;28;20476;-71
2022/11/13 12:28:49;;;;;;;461.20;430.43;;;6.70;26.30;;;;;;5102745;28;20419;-74